Airfield :
LOGIN :

Register | Disclaimer

   EN    FR    IT 

 










Legend :    VFR   Marginal VFR   IFR   Intensive IFR   Very Intensive IFR
Visi :
Ceiling :
>= 8 km
>= 3000ft
5 to 8 km
1000 to 3000 ft
1500m to 5 km
500 to 1000 ft
800 to 1500m
200 to 500 ft
< 800m
< 200 ft
Symbols :   Thunderstorms  Fog  Heavy snow  Heavy precipitations  Wind > 20 kt
SIGMETs :     Misc.  Thunderstorms  Icing  Turbulence  Mountain Waves  Volcanic Ashes






- Airport Elevation : 39 ft


ETNH - Hohn AB

CURRENT METAR :
  • 281920Z 32005KT 9999 FEW045 SCT340 13/07 Q1031 BLU+

EXPIRED METARs :
  • 281820Z 33008KT 9999 FEW045 15/07 Q1031 BLU+
  • 281720Z 31012KT 9999 FEW050 17/07 Q1030 BLU+
  • 281648Z 30014KT 9999 FEW050 17/08 Q1030 BLU+FCST CANCEL

TAF TAF ETNH
Valid from the 28 at 17:00 until the 29 at 05:00 UTC


281600Z 2817/2905 31005KT 9999 NSW FEW030 SCT260
TEMPO 2903/2905 32002KT 4000 BR FEW260 BY ETGL



MET'MAP, your aeronautical weather chart ! - Copyright ORBIFLY December 2007 - Disclaimer

ORBIFLY MET'MAP TEAM :

Programming & Development : Alexandra Zaïnal
Concept & original design : Baudouin d'Aumeries
Assistance for programming : Marc-Olivier Méhu
Technical & hardware support : Manuel Goepfert

Contact : metmap@orbifly.com




SOURCES & CREDITS :

   NOAA